sensor_id;sensor_type;location;lat;lon;timestamp;temperature;humidity
50606;DHT22;36557;53.572;10.170;2023-03-31T00:01:57;10.40;99.90
50606;DHT22;36557;53.572;10.170;2023-03-31T00:04:23;10.50;99.90
50606;DHT22;36557;53.572;10.170;2023-03-31T00:06:50;10.40;99.90
50606;DHT22;36557;53.572;10.170;2023-03-31T00:09:18;10.40;99.90
50606;DHT22;36557;53.572;10.170;2023-03-31T00:11:47;10.50;99.90
50606;DHT22;36557;53.572;10.170;2023-03-31T00:14:14;10.50;99.90
50606;DHT22;36557;53.572;10.170;2023-03-31T00:16:42;10.50;99.90
50606;DHT22;36557;53.572;10.170;2023-03-31T00:19:09;10.50;99.90
50606;DHT22;36557;53.572;10.170;2023-03-31T00:21:46;10.50;99.90
50606;DHT22;36557;53.572;10.170;2023-03-31T00:24:13;10.50;99.90
50606;DHT22;36557;53.572;10.170;2023-03-31T00:26:39;10.50;99.90
50606;DHT22;36557;53.572;10.170;2023-03-31T00:29:06;10.50;99.90
50606;DHT22;36557;53.572;10.170;2023-03-31T00:31:33;10.50;99.90
50606;DHT22;36557;53.572;10.170;2023-03-31T00:33:59;10.50;99.90
50606;DHT22;36557;53.572;10.170;2023-03-31T00:36:25;10.50;99.90
50606;DHT22;36557;53.572;10.170;2023-03-31T00:38:58;10.50;99.90
50606;DHT22;36557;53.572;10.170;2023-03-31T00:41:25;10.50;99.90
50606;DHT22;36557;53.572;10.170;2023-03-31T00:44:21;10.40;99.90
50606;DHT22;36557;53.572;10.170;2023-03-31T00:47:12;10.40;99.90
50606;DHT22;36557;53.572;10.170;2023-03-31T00:49:41;10.40;99.90
50606;DHT22;36557;53.572;10.170;2023-03-31T00:52:23;10.40;99.90
50606;DHT22;36557;53.572;10.170;2023-03-31T00:55:02;10.30;99.90
50606;DHT22;36557;53.572;10.170;2023-03-31T00:57:31;10.30;99.90
50606;DHT22;36557;53.572;10.170;2023-03-31T01:00:02;10.30;99.90
50606;DHT22;36557;53.572;10.170;2023-03-31T01:02:58;10.30;99.90
50606;DHT22;36557;53.572;10.170;2023-03-31T01:05:36;10.30;99.90
50606;DHT22;36557;53.572;10.170;2023-03-31T01:08:04;10.30;99.90
50606;DHT22;36557;53.572;10.170;2023-03-31T01:10:33;10.30;99.90
50606;DHT22;36557;53.572;10.170;2023-03-31T01:13:08;10.30;99.90
50606;DHT22;36557;53.572;10.170;2023-03-31T01:15:35;10.30;99.90
50606;DHT22;36557;53.572;10.170;2023-03-31T01:18:01;10.30;99.90
50606;DHT22;36557;53.572;10.170;2023-03-31T01:28:53;10.20;99.90
50606;DHT22;36557;53.572;10.170;2023-03-31T01:42:17;10.30;99.90
50606;DHT22;36557;53.572;10.170;2023-03-31T01:47:58;10.30;99.90
50606;DHT22;36557;53.572;10.170;2023-03-31T01:50:33;10.30;99.90
50606;DHT22;36557;53.572;10.170;2023-03-31T01:59:10;10.30;99.90
50606;DHT22;36557;53.572;10.170;2023-03-31T02:01:45;10.20;99.90
50606;DHT22;36557;53.572;10.170;2023-03-31T02:04:17;10.20;99.90
50606;DHT22;36557;53.572;10.170;2023-03-31T02:06:50;10.10;99.90
50606;DHT22;36557;53.572;10.170;2023-03-31T02:09:23;10.10;99.90
50606;DHT22;36557;53.572;10.170;2023-03-31T02:11:52;10.00;99.90
50606;DHT22;36557;53.572;10.170;2023-03-31T02:14:22;10.00;99.90
50606;DHT22;36557;53.572;10.170;2023-03-31T02:16:54;10.10;99.90
50606;DHT22;36557;53.572;10.170;2023-03-31T02:19:24;10.00;99.90
50606;DHT22;36557;53.572;10.170;2023-03-31T02:21:52;10.00;99.90
50606;DHT22;36557;53.572;10.170;2023-03-31T02:24:22;10.10;99.90
50606;DHT22;36557;53.572;10.170;2023-03-31T02:29:35;10.10;99.90
50606;DHT22;36557;53.572;10.170;2023-03-31T02:32:30;10.10;99.90
50606;DHT22;36557;53.572;10.170;2023-03-31T02:34:57;10.10;99.90
50606;DHT22;36557;53.572;10.170;2023-03-31T02:37:23;10.00;99.90
50606;DHT22;36557;53.572;10.170;2023-03-31T02:39:52;10.10;99.90
50606;DHT22;36557;53.572;10.170;2023-03-31T02:42:20;10.10;99.90
50606;DHT22;36557;53.572;10.170;2023-03-31T02:44:46;10.10;99.90
50606;DHT22;36557;53.572;10.170;2023-03-31T02:47:13;10.00;99.90
50606;DHT22;36557;53.572;10.170;2023-03-31T02:49:44;10.00;99.90
50606;DHT22;36557;53.572;10.170;2023-03-31T02:55:15;10.00;99.90
50606;DHT22;36557;53.572;10.170;2023-03-31T03:09:38;9.80;99.90
50606;DHT22;36557;53.572;10.170;2023-03-31T03:12:16;9.80;99.90
50606;DHT22;36557;53.572;10.170;2023-03-31T03:14:52;9.80;99.90
50606;DHT22;36557;53.572;10.170;2023-03-31T03:17:36;9.80;99.90
50606;DHT22;36557;53.572;10.170;2023-03-31T03:20:04;9.80;99.90
50606;DHT22;36557;53.572;10.170;2023-03-31T03:22:33;9.70;99.90
50606;DHT22;36557;53.572;10.170;2023-03-31T03:24:59;9.70;99.90
50606;DHT22;36557;53.572;10.170;2023-03-31T03:27:25;9.70;99.90
50606;DHT22;36557;53.572;10.170;2023-03-31T03:29:50;9.70;99.90
50606;DHT22;36557;53.572;10.170;2023-03-31T03:32:16;9.70;99.90
50606;DHT22;36557;53.572;10.170;2023-03-31T03:34:42;9.60;99.90
50606;DHT22;36557;53.572;10.170;2023-03-31T03:37:07;9.60;99.90
50606;DHT22;36557;53.572;10.170;2023-03-31T03:39:33;9.60;99.90
50606;DHT22;36557;53.572;10.170;2023-03-31T03:41:59;9.60;99.90
50606;DHT22;36557;53.572;10.170;2023-03-31T03:44:25;9.50;99.90
50606;DHT22;36557;53.572;10.170;2023-03-31T03:46:50;9.50;99.90
50606;DHT22;36557;53.572;10.170;2023-03-31T03:49:16;9.50;99.90
50606;DHT22;36557;53.572;10.170;2023-03-31T03:51:42;9.50;99.90
50606;DHT22;36557;53.572;10.170;2023-03-31T03:54:08;9.50;99.90
50606;DHT22;36557;53.572;10.170;2023-03-31T03:56:33;9.50;99.90
50606;DHT22;36557;53.572;10.170;2023-03-31T03:58:59;9.50;99.90
50606;DHT22;36557;53.572;10.170;2023-03-31T04:01:25;9.50;99.90
50606;DHT22;36557;53.572;10.170;2023-03-31T04:03:50;9.50;99.90
50606;DHT22;36557;53.572;10.170;2023-03-31T04:06:16;9.50;99.90
50606;DHT22;36557;53.572;10.170;2023-03-31T04:08:42;9.50;99.90
50606;DHT22;36557;53.572;10.170;2023-03-31T04:11:13;9.50;99.90
50606;DHT22;36557;53.572;10.170;2023-03-31T04:13:41;9.50;99.90
50606;DHT22;36557;53.572;10.170;2023-03-31T04:16:07;9.40;99.90
50606;DHT22;36557;53.572;10.170;2023-03-31T04:18:33;9.50;99.90
50606;DHT22;36557;53.572;10.170;2023-03-31T04:21:02;9.50;99.90
50606;DHT22;36557;53.572;10.170;2023-03-31T04:23:35;9.50;99.90
50606;DHT22;36557;53.572;10.170;2023-03-31T04:26:08;9.40;99.90
50606;DHT22;36557;53.572;10.170;2023-03-31T04:28:38;9.50;99.90
50606;DHT22;36557;53.572;10.170;2023-03-31T04:31:08;9.50;99.90
50606;DHT22;36557;53.572;10.170;2023-03-31T04:33:34;9.50;99.90
50606;DHT22;36557;53.572;10.170;2023-03-31T04:36:04;9.50;99.90
50606;DHT22;36557;53.572;10.170;2023-03-31T04:38:32;9.50;99.90
50606;DHT22;36557;53.572;10.170;2023-03-31T04:41:00;9.50;99.90
50606;DHT22;36557;53.572;10.170;2023-03-31T04:43:26;9.50;99.90
50606;DHT22;36557;53.572;10.170;2023-03-31T04:45:52;9.50;99.90
50606;DHT22;36557;53.572;10.170;2023-03-31T04:48:17;9.50;99.90
50606;DHT22;36557;53.572;10.170;2023-03-31T04:50:45;9.50;99.90
50606;DHT22;36557;53.572;10.170;2023-03-31T04:53:11;9.50;99.90
50606;DHT22;36557;53.572;10.170;2023-03-31T04:55:37;9.50;99.90
50606;DHT22;36557;53.572;10.170;2023-03-31T04:58:02;9.50;99.90
50606;DHT22;36557;53.572;10.170;2023-03-31T05:00:28;9.50;99.90
50606;DHT22;36557;53.572;10.170;2023-03-31T05:02:54;9.50;99.90
50606;DHT22;36557;53.572;10.170;2023-03-31T05:05:20;9.50;99.90
50606;DHT22;36557;53.572;10.170;2023-03-31T05:07:46;9.60;99.90
50606;DHT22;36557;53.572;10.170;2023-03-31T05:10:13;9.50;99.90
50606;DHT22;36557;53.572;10.170;2023-03-31T05:12:39;9.60;99.90
50606;DHT22;36557;53.572;10.170;2023-03-31T05:15:05;9.60;99.90
50606;DHT22;36557;53.572;10.170;2023-03-31T05:17:33;9.60;99.90
50606;DHT22;36557;53.572;10.170;2023-03-31T05:19:59;9.60;99.90
50606;DHT22;36557;53.572;10.170;2023-03-31T05:22:26;9.60;99.90
50606;DHT22;36557;53.572;10.170;2023-03-31T05:24:52;9.60;99.90
50606;DHT22;36557;53.572;10.170;2023-03-31T05:27:18;9.70;99.90
50606;DHT22;36557;53.572;10.170;2023-03-31T05:29:46;9.70;99.90
50606;DHT22;36557;53.572;10.170;2023-03-31T05:32:11;9.60;99.90
50606;DHT22;36557;53.572;10.170;2023-03-31T05:34:37;9.70;99.90
50606;DHT22;36557;53.572;10.170;2023-03-31T05:37:03;9.70;99.90
50606;DHT22;36557;53.572;10.170;2023-03-31T05:39:29;9.70;99.90
50606;DHT22;36557;53.572;10.170;2023-03-31T05:41:58;9.70;99.90
50606;DHT22;36557;53.572;10.170;2023-03-31T05:44:24;9.70;99.90
50606;DHT22;36557;53.572;10.170;2023-03-31T05:46:52;9.70;99.90
50606;DHT22;36557;53.572;10.170;2023-03-31T05:49:18;9.80;99.90
50606;DHT22;36557;53.572;10.170;2023-03-31T05:51:43;9.70;99.90
50606;DHT22;36557;53.572;10.170;2023-03-31T05:54:10;9.80;99.90
50606;DHT22;36557;53.572;10.170;2023-03-31T05:56:35;9.90;99.90
50606;DHT22;36557;53.572;10.170;2023-03-31T05:59:01;9.90;99.90
50606;DHT22;36557;53.572;10.170;2023-03-31T06:01:27;9.90;99.90
50606;DHT22;36557;53.572;10.170;2023-03-31T06:03:54;9.90;99.90
50606;DHT22;36557;53.572;10.170;2023-03-31T06:06:21;10.00;99.90
50606;DHT22;36557;53.572;10.170;2023-03-31T06:08:47;10.00;99.90
50606;DHT22;36557;53.572;10.170;2023-03-31T06:11:18;10.00;99.90
50606;DHT22;36557;53.572;10.170;2023-03-31T06:13:45;10.10;99.90
50606;DHT22;36557;53.572;10.170;2023-03-31T06:16:12;10.10;99.90
50606;DHT22;36557;53.572;10.170;2023-03-31T06:18:39;10.10;99.90
50606;DHT22;36557;53.572;10.170;2023-03-31T06:21:05;10.10;99.90
50606;DHT22;36557;53.572;10.170;2023-03-31T06:23:31;10.20;99.90
50606;DHT22;36557;53.572;10.170;2023-03-31T06:26:03;10.20;99.90
50606;DHT22;36557;53.572;10.170;2023-03-31T06:28:29;10.30;99.90
50606;DHT22;36557;53.572;10.170;2023-03-31T06:31:06;10.40;99.90
50606;DHT22;36557;53.572;10.170;2023-03-31T06:33:33;10.40;99.90
50606;DHT22;36557;53.572;10.170;2023-03-31T06:35:59;10.50;99.90
50606;DHT22;36557;53.572;10.170;2023-03-31T06:38:26;10.50;99.90
50606;DHT22;36557;53.572;10.170;2023-03-31T06:40:52;10.60;99.90
50606;DHT22;36557;53.572;10.170;2023-03-31T06:43:19;10.60;99.90
50606;DHT22;36557;53.572;10.170;2023-03-31T06:45:45;10.70;99.90
50606;DHT22;36557;53.572;10.170;2023-03-31T06:48:11;10.70;99.90
50606;DHT22;36557;53.572;10.170;2023-03-31T06:50:38;10.70;99.90
50606;DHT22;36557;53.572;10.170;2023-03-31T06:53:04;10.70;99.90
50606;DHT22;36557;53.572;10.170;2023-03-31T06:55:30;10.80;99.90
50606;DHT22;36557;53.572;10.170;2023-03-31T06:57:58;10.70;99.90
50606;DHT22;36557;53.572;10.170;2023-03-31T07:00:24;10.70;99.90
50606;DHT22;36557;53.572;10.170;2023-03-31T07:02:52;10.70;99.90
50606;DHT22;36557;53.572;10.170;2023-03-31T07:05:18;10.80;99.90
50606;DHT22;36557;53.572;10.170;2023-03-31T07:07:44;10.90;99.90
50606;DHT22;36557;53.572;10.170;2023-03-31T07:10:10;10.80;99.90
50606;DHT22;36557;53.572;10.170;2023-03-31T07:12:36;10.90;99.90
50606;DHT22;36557;53.572;10.170;2023-03-31T07:15:02;11.00;99.90
50606;DHT22;36557;53.572;10.170;2023-03-31T07:17:28;11.10;99.90
50606;DHT22;36557;53.572;10.170;2023-03-31T07:19:54;11.10;99.90
50606;DHT22;36557;53.572;10.170;2023-03-31T07:22:19;11.20;99.90
50606;DHT22;36557;53.572;10.170;2023-03-31T07:24:45;11.20;99.90
50606;DHT22;36557;53.572;10.170;2023-03-31T07:27:11;11.20;99.90
50606;DHT22;36557;53.572;10.170;2023-03-31T07:29:36;11.30;99.90
50606;DHT22;36557;53.572;10.170;2023-03-31T07:32:02;11.30;99.90
50606;DHT22;36557;53.572;10.170;2023-03-31T07:34:28;11.40;99.90
50606;DHT22;36557;53.572;10.170;2023-03-31T07:36:54;11.50;99.90
50606;DHT22;36557;53.572;10.170;2023-03-31T07:39:20;11.50;99.90
50606;DHT22;36557;53.572;10.170;2023-03-31T07:41:46;11.50;99.90
50606;DHT22;36557;53.572;10.170;2023-03-31T07:44:12;11.50;99.90
50606;DHT22;36557;53.572;10.170;2023-03-31T07:46:38;11.60;99.90
50606;DHT22;36557;53.572;10.170;2023-03-31T07:49:04;11.70;99.90
50606;DHT22;36557;53.572;10.170;2023-03-31T07:51:31;11.60;99.90
50606;DHT22;36557;53.572;10.170;2023-03-31T07:53:57;11.50;99.90
50606;DHT22;36557;53.572;10.170;2023-03-31T07:56:24;11.40;99.90
50606;DHT22;36557;53.572;10.170;2023-03-31T07:58:50;11.40;99.90
50606;DHT22;36557;53.572;10.170;2023-03-31T08:01:19;11.20;99.90
50606;DHT22;36557;53.572;10.170;2023-03-31T08:03:46;11.00;99.90
50606;DHT22;36557;53.572;10.170;2023-03-31T08:06:20;11.10;99.90
50606;DHT22;36557;53.572;10.170;2023-03-31T08:08:47;11.00;99.90
50606;DHT22;36557;53.572;10.170;2023-03-31T08:11:13;10.90;99.90
50606;DHT22;36557;53.572;10.170;2023-03-31T08:13:38;10.80;99.90
50606;DHT22;36557;53.572;10.170;2023-03-31T08:16:04;10.90;99.90
50606;DHT22;36557;53.572;10.170;2023-03-31T08:18:30;10.90;99.90
50606;DHT22;36557;53.572;10.170;2023-03-31T08:20:56;10.90;99.90
50606;DHT22;36557;53.572;10.170;2023-03-31T08:23:21;10.90;99.90
50606;DHT22;36557;53.572;10.170;2023-03-31T08:25:47;10.90;99.90
50606;DHT22;36557;53.572;10.170;2023-03-31T08:28:13;11.00;99.90
50606;DHT22;36557;53.572;10.170;2023-03-31T08:30:40;10.90;99.90
50606;DHT22;36557;53.572;10.170;2023-03-31T08:33:06;11.00;99.90
50606;DHT22;36557;53.572;10.170;2023-03-31T08:35:37;11.10;99.90
50606;DHT22;36557;53.572;10.170;2023-03-31T08:38:03;11.00;99.90
50606;DHT22;36557;53.572;10.170;2023-03-31T08:40:29;11.10;99.90
50606;DHT22;36557;53.572;10.170;2023-03-31T08:43:10;11.20;99.90
50606;DHT22;36557;53.572;10.170;2023-03-31T08:45:42;11.20;99.90
50606;DHT22;36557;53.572;10.170;2023-03-31T08:50:44;11.10;99.90
50606;DHT22;36557;53.572;10.170;2023-03-31T08:53:28;11.10;99.90
50606;DHT22;36557;53.572;10.170;2023-03-31T08:55:56;11.20;99.90
50606;DHT22;36557;53.572;10.170;2023-03-31T08:58:44;11.20;99.90
50606;DHT22;36557;53.572;10.170;2023-03-31T09:09:49;11.10;99.90
50606;DHT22;36557;53.572;10.170;2023-03-31T09:12:23;11.00;99.90
50606;DHT22;36557;53.572;10.170;2023-03-31T09:14:59;11.00;99.90
50606;DHT22;36557;53.572;10.170;2023-03-31T09:17:36;11.00;99.90
50606;DHT22;36557;53.572;10.170;2023-03-31T09:20:27;10.90;99.90
50606;DHT22;36557;53.572;10.170;2023-03-31T09:23:00;11.00;99.90
50606;DHT22;36557;53.572;10.170;2023-03-31T09:25:33;11.10;99.90
50606;DHT22;36557;53.572;10.170;2023-03-31T09:28:02;11.20;99.90
50606;DHT22;36557;53.572;10.170;2023-03-31T09:30:31;11.20;99.90
50606;DHT22;36557;53.572;10.170;2023-03-31T09:33:19;11.20;99.90
50606;DHT22;36557;53.572;10.170;2023-03-31T09:35:47;11.30;99.90
50606;DHT22;36557;53.572;10.170;2023-03-31T09:38:14;11.30;99.90
50606;DHT22;36557;53.572;10.170;2023-03-31T09:40:41;11.50;99.90
50606;DHT22;36557;53.572;10.170;2023-03-31T09:43:23;11.50;99.90
50606;DHT22;36557;53.572;10.170;2023-03-31T09:45:52;11.60;99.90
50606;DHT22;36557;53.572;10.170;2023-03-31T09:48:20;11.70;99.90
50606;DHT22;36557;53.572;10.170;2023-03-31T09:51:00;11.80;99.90
50606;DHT22;36557;53.572;10.170;2023-03-31T09:53:33;11.70;99.90
50606;DHT22;36557;53.572;10.170;2023-03-31T09:56:04;11.60;99.90
50606;DHT22;36557;53.572;10.170;2023-03-31T09:58:40;11.60;99.90
50606;DHT22;36557;53.572;10.170;2023-03-31T10:01:06;11.60;99.90
50606;DHT22;36557;53.572;10.170;2023-03-31T10:03:50;11.70;99.90
50606;DHT22;36557;53.572;10.170;2023-03-31T10:06:17;11.80;99.90
50606;DHT22;36557;53.572;10.170;2023-03-31T10:11:14;11.90;99.90
50606;DHT22;36557;53.572;10.170;2023-03-31T10:13:44;11.90;99.90
50606;DHT22;36557;53.572;10.170;2023-03-31T10:16:13;11.80;99.90
50606;DHT22;36557;53.572;10.170;2023-03-31T10:18:41;11.90;99.90
50606;DHT22;36557;53.572;10.170;2023-03-31T10:21:26;12.00;99.90
50606;DHT22;36557;53.572;10.170;2023-03-31T10:23:53;12.10;99.90
50606;DHT22;36557;53.572;10.170;2023-03-31T10:26:25;12.10;99.90
50606;DHT22;36557;53.572;10.170;2023-03-31T10:28:52;12.00;99.90
50606;DHT22;36557;53.572;10.170;2023-03-31T10:31:26;11.90;99.90
50606;DHT22;36557;53.572;10.170;2023-03-31T10:33:58;11.90;99.90
50606;DHT22;36557;53.572;10.170;2023-03-31T10:36:29;12.00;99.90
50606;DHT22;36557;53.572;10.170;2023-03-31T10:38:57;12.00;99.90
50606;DHT22;36557;53.572;10.170;2023-03-31T10:41:25;12.30;99.90
50606;DHT22;36557;53.572;10.170;2023-03-31T10:43:54;12.60;99.90
50606;DHT22;36557;53.572;10.170;2023-03-31T10:46:20;12.60;99.90
50606;DHT22;36557;53.572;10.170;2023-03-31T10:49:19;12.40;99.90
50606;DHT22;36557;53.572;10.170;2023-03-31T10:51:55;12.40;99.90
50606;DHT22;36557;53.572;10.170;2023-03-31T10:54:22;12.40;99.90
50606;DHT22;36557;53.572;10.170;2023-03-31T10:56:51;12.40;99.90
50606;DHT22;36557;53.572;10.170;2023-03-31T11:08:02;12.00;99.90
50606;DHT22;36557;53.572;10.170;2023-03-31T11:13:59;11.90;99.90
50606;DHT22;36557;53.572;10.170;2023-03-31T11:29:50;12.20;99.90
50606;DHT22;36557;53.572;10.170;2023-03-31T11:37:55;12.20;99.90
50606;DHT22;36557;53.572;10.170;2023-03-31T11:43:00;12.00;99.90
50606;DHT22;36557;53.572;10.170;2023-03-31T11:45:50;12.00;99.90
50606;DHT22;36557;53.572;10.170;2023-03-31T11:48:30;11.90;99.90
50606;DHT22;36557;53.572;10.170;2023-03-31T11:50:59;11.90;99.90
50606;DHT22;36557;53.572;10.170;2023-03-31T11:53:33;11.90;99.90
50606;DHT22;36557;53.572;10.170;2023-03-31T11:56:02;11.90;99.90
50606;DHT22;36557;53.572;10.170;2023-03-31T12:06:43;11.70;99.90
50606;DHT22;36557;53.572;10.170;2023-03-31T12:11:51;11.60;99.90
50606;DHT22;36557;53.572;10.170;2023-03-31T12:14:32;11.60;99.90
50606;DHT22;36557;53.572;10.170;2023-03-31T12:17:11;11.60;99.90
50606;DHT22;36557;53.572;10.170;2023-03-31T12:19:48;11.50;99.90
50606;DHT22;36557;53.572;10.170;2023-03-31T12:22:26;11.40;99.90
50606;DHT22;36557;53.572;10.170;2023-03-31T12:24:54;11.50;99.90
50606;DHT22;36557;53.572;10.170;2023-03-31T12:27:44;11.30;99.90
50606;DHT22;36557;53.572;10.170;2023-03-31T12:30:33;11.20;99.90
50606;DHT22;36557;53.572;10.170;2023-03-31T12:41:25;11.30;99.90
50606;DHT22;36557;53.572;10.170;2023-03-31T12:47:20;11.20;99.90
50606;DHT22;36557;53.572;10.170;2023-03-31T12:52:48;11.20;99.90
50606;DHT22;36557;53.572;10.170;2023-03-31T12:55:37;11.20;99.90
50606;DHT22;36557;53.572;10.170;2023-03-31T13:01:13;11.20;99.90
50606;DHT22;36557;53.572;10.170;2023-03-31T13:11:34;11.40;99.90
50606;DHT22;36557;53.572;10.170;2023-03-31T13:19:04;12.30;99.90
50606;DHT22;36557;53.572;10.170;2023-03-31T13:21:30;12.60;99.90
50606;DHT22;36557;53.572;10.170;2023-03-31T13:24:00;12.70;99.90
50606;DHT22;36557;53.572;10.170;2023-03-31T13:34:43;12.40;99.90
50606;DHT22;36557;53.572;10.170;2023-03-31T13:37:44;12.40;99.90
50606;DHT22;36557;53.572;10.170;2023-03-31T13:40:31;12.10;99.90
50606;DHT22;36557;53.572;10.170;2023-03-31T13:52:00;11.80;99.90
50606;DHT22;36557;53.572;10.170;2023-03-31T13:55:00;11.70;99.90
50606;DHT22;36557;53.572;10.170;2023-03-31T14:00:20;11.90;99.90
50606;DHT22;36557;53.572;10.170;2023-03-31T14:06:24;12.10;99.90
50606;DHT22;36557;53.572;10.170;2023-03-31T14:08:46;12.20;99.90
50606;DHT22;36557;53.572;10.170;2023-03-31T14:13:43;12.20;99.90
50606;DHT22;36557;53.572;10.170;2023-03-31T14:16:09;12.30;99.90
50606;DHT22;36557;53.572;10.170;2023-03-31T14:18:37;12.60;99.90
50606;DHT22;36557;53.572;10.170;2023-03-31T14:21:17;12.70;99.90
50606;DHT22;36557;53.572;10.170;2023-03-31T14:26:47;13.00;99.90
50606;DHT22;36557;53.572;10.170;2023-03-31T14:29:54;13.10;99.90
50606;DHT22;36557;53.572;10.170;2023-03-31T14:32:38;13.10;99.90
50606;DHT22;36557;53.572;10.170;2023-03-31T14:35:33;13.10;99.90
50606;DHT22;36557;53.572;10.170;2023-03-31T14:38:08;13.10;99.90
50606;DHT22;36557;53.572;10.170;2023-03-31T14:40:44;13.10;99.90
50606;DHT22;36557;53.572;10.170;2023-03-31T14:43:22;12.90;99.90
50606;DHT22;36557;53.572;10.170;2023-03-31T14:46:06;12.90;99.90
50606;DHT22;36557;53.572;10.170;2023-03-31T14:48:35;12.80;99.90
50606;DHT22;36557;53.572;10.170;2023-03-31T14:51:08;12.70;99.90
50606;DHT22;36557;53.572;10.170;2023-03-31T14:53:35;12.70;99.90
50606;DHT22;36557;53.572;10.170;2023-03-31T14:56:13;12.70;99.90
50606;DHT22;36557;53.572;10.170;2023-03-31T14:58:52;12.70;99.90
50606;DHT22;36557;53.572;10.170;2023-03-31T15:01:22;12.70;99.90
50606;DHT22;36557;53.572;10.170;2023-03-31T15:03:51;12.60;99.90
50606;DHT22;36557;53.572;10.170;2023-03-31T15:06:17;12.70;99.90
50606;DHT22;36557;53.572;10.170;2023-03-31T15:08:43;12.70;99.90
50606;DHT22;36557;53.572;10.170;2023-03-31T15:11:15;12.90;99.90
50606;DHT22;36557;53.572;10.170;2023-03-31T15:13:44;12.90;99.90
50606;DHT22;36557;53.572;10.170;2023-03-31T15:18:56;13.00;99.90
50606;DHT22;36557;53.572;10.170;2023-03-31T15:21:24;13.10;99.90
50606;DHT22;36557;53.572;10.170;2023-03-31T15:23:57;13.10;99.90
50606;DHT22;36557;53.572;10.170;2023-03-31T15:27:05;13.10;99.90
50606;DHT22;36557;53.572;10.170;2023-03-31T15:29:42;13.20;99.90
50606;DHT22;36557;53.572;10.170;2023-03-31T15:32:36;13.10;99.90
50606;DHT22;36557;53.572;10.170;2023-03-31T15:35:03;13.00;99.90
50606;DHT22;36557;53.572;10.170;2023-03-31T15:37:41;12.90;99.90
50606;DHT22;36557;53.572;10.170;2023-03-31T15:40:23;12.90;99.90
50606;DHT22;36557;53.572;10.170;2023-03-31T15:42:53;12.90;99.90
50606;DHT22;36557;53.572;10.170;2023-03-31T15:47:55;12.80;99.90
50606;DHT22;36557;53.572;10.170;2023-03-31T15:50:22;12.90;99.90
50606;DHT22;36557;53.572;10.170;2023-03-31T15:52:50;13.00;99.90
50606;DHT22;36557;53.572;10.170;2023-03-31T15:55:29;13.00;99.90
50606;DHT22;36557;53.572;10.170;2023-03-31T15:57:57;13.00;99.90
50606;DHT22;36557;53.572;10.170;2023-03-31T16:05:49;12.90;99.90
50606;DHT22;36557;53.572;10.170;2023-03-31T16:08:21;12.80;99.90
50606;DHT22;36557;53.572;10.170;2023-03-31T16:10:55;12.80;99.90
50606;DHT22;36557;53.572;10.170;2023-03-31T16:13:22;12.80;99.90
50606;DHT22;36557;53.572;10.170;2023-03-31T16:15:50;12.70;99.90
50606;DHT22;36557;53.572;10.170;2023-03-31T16:20:56;12.60;99.90
50606;DHT22;36557;53.572;10.170;2023-03-31T16:23:25;12.50;99.90
50606;DHT22;36557;53.572;10.170;2023-03-31T16:25:51;12.40;99.90
50606;DHT22;36557;53.572;10.170;2023-03-31T16:28:21;12.30;99.90
50606;DHT22;36557;53.572;10.170;2023-03-31T16:30:48;12.30;99.90
50606;DHT22;36557;53.572;10.170;2023-03-31T16:33:18;12.30;99.90
50606;DHT22;36557;53.572;10.170;2023-03-31T16:35:46;12.20;99.90
50606;DHT22;36557;53.572;10.170;2023-03-31T16:38:21;12.10;99.90
50606;DHT22;36557;53.572;10.170;2023-03-31T16:40:49;12.20;99.90
50606;DHT22;36557;53.572;10.170;2023-03-31T16:46:01;12.00;99.90
50606;DHT22;36557;53.572;10.170;2023-03-31T16:48:31;11.90;99.90
50606;DHT22;36557;53.572;10.170;2023-03-31T16:51:00;11.90;99.90
50606;DHT22;36557;53.572;10.170;2023-03-31T16:53:31;11.80;99.90
50606;DHT22;36557;53.572;10.170;2023-03-31T16:55:58;11.80;99.90
50606;DHT22;36557;53.572;10.170;2023-03-31T16:58:25;11.70;99.90
50606;DHT22;36557;53.572;10.170;2023-03-31T17:00:53;11.70;99.90
50606;DHT22;36557;53.572;10.170;2023-03-31T17:03:19;11.70;99.90
50606;DHT22;36557;53.572;10.170;2023-03-31T17:05:50;11.60;99.90
50606;DHT22;36557;53.572;10.170;2023-03-31T17:08:20;11.50;99.90
50606;DHT22;36557;53.572;10.170;2023-03-31T17:10:55;11.40;99.90
50606;DHT22;36557;53.572;10.170;2023-03-31T17:13:22;11.40;99.90
50606;DHT22;36557;53.572;10.170;2023-03-31T17:15:48;11.40;99.90
50606;DHT22;36557;53.572;10.170;2023-03-31T17:18:14;11.30;99.90
50606;DHT22;36557;53.572;10.170;2023-03-31T17:20:42;11.20;99.90
50606;DHT22;36557;53.572;10.170;2023-03-31T17:23:08;11.10;99.90
50606;DHT22;36557;53.572;10.170;2023-03-31T17:25:34;11.10;99.90
50606;DHT22;36557;53.572;10.170;2023-03-31T17:28:01;11.10;99.90
50606;DHT22;36557;53.572;10.170;2023-03-31T17:30:27;11.10;99.90
50606;DHT22;36557;53.572;10.170;2023-03-31T17:32:53;11.20;99.90
50606;DHT22;36557;53.572;10.170;2023-03-31T17:35:19;11.20;99.90
50606;DHT22;36557;53.572;10.170;2023-03-31T17:37:49;11.10;99.90
50606;DHT22;36557;53.572;10.170;2023-03-31T17:40:22;11.20;99.90
50606;DHT22;36557;53.572;10.170;2023-03-31T17:42:48;11.20;99.90
50606;DHT22;36557;53.572;10.170;2023-03-31T17:45:14;11.20;99.90
50606;DHT22;36557;53.572;10.170;2023-03-31T17:47:40;11.20;99.90
50606;DHT22;36557;53.572;10.170;2023-03-31T17:50:07;11.10;99.90
50606;DHT22;36557;53.572;10.170;2023-03-31T17:52:34;11.10;99.90
50606;DHT22;36557;53.572;10.170;2023-03-31T17:55:01;11.10;99.90
50606;DHT22;36557;53.572;10.170;2023-03-31T17:57:27;11.10;99.90
50606;DHT22;36557;53.572;10.170;2023-03-31T17:59:53;11.10;99.90
50606;DHT22;36557;53.572;10.170;2023-03-31T18:02:18;11.00;99.90
50606;DHT22;36557;53.572;10.170;2023-03-31T18:04:45;11.10;99.90
50606;DHT22;36557;53.572;10.170;2023-03-31T18:07:11;11.00;99.90
50606;DHT22;36557;53.572;10.170;2023-03-31T18:09:37;11.00;99.90
50606;DHT22;36557;53.572;10.170;2023-03-31T18:12:04;11.00;99.90
50606;DHT22;36557;53.572;10.170;2023-03-31T18:14:30;11.00;99.90
50606;DHT22;36557;53.572;10.170;2023-03-31T18:16:57;11.00;99.90
50606;DHT22;36557;53.572;10.170;2023-03-31T18:19:23;10.90;99.90
50606;DHT22;36557;53.572;10.170;2023-03-31T18:21:49;10.90;99.90
50606;DHT22;36557;53.572;10.170;2023-03-31T18:24:15;10.90;99.90
50606;DHT22;36557;53.572;10.170;2023-03-31T18:26:43;10.80;99.90
50606;DHT22;36557;53.572;10.170;2023-03-31T18:29:08;10.80;99.90
50606;DHT22;36557;53.572;10.170;2023-03-31T18:31:34;10.80;99.90
50606;DHT22;36557;53.572;10.170;2023-03-31T18:34:00;10.80;99.90
50606;DHT22;36557;53.572;10.170;2023-03-31T18:36:26;10.90;99.90
50606;DHT22;36557;53.572;10.170;2023-03-31T18:38:52;10.80;99.90